Aeroporto :
LOGIN :

Iscrizione | Disclaimer

   EN    FR    IT 

 










Sommario :    VFR   VFR Marginale   IFR   IFR Intensivo   IFR Molto Intensivo
Visibilità : 
Base nubi : 
>= 8 km
>= 3000ft
5 / 8 km
1000 / 3000 ft
1500m / 5 km
500 / 1000 ft
800 / 1500m
200 / 500 ft
< 800m
< 200 ft
Simboli :   Temporali  Nebbia  Neve Forte  Precipitazioni Forti  Vento > 20 kt
SIGMETs :   Varie  Temporali  Ghiacco  Turbolenza  Onda orograficha  Ceneri Vulcaniche






- Altitudine del aeroporto : 405 ft
- Codice IATA : ODH


EGVO - RAF Odiham

ULTIMO METAR :
  • 061920Z 23004KT CAVOK 03/M00 Q1038 NOSIG RMK BLU BLU

METARs OBSOLETI :
  • 061850Z 22003KT CAVOK 02/M02 Q1038 NOSIG RMK BLU BLU
  • 061820Z 24004KT CAVOK 04/M01 Q1038 NOSIG RMK BLU BLU
  • 061750Z 24003KT CAVOK 05/M00 Q1039 NOSIG RMK BLU BLU
  • 061720Z 23002KT CAVOK 07/M01 Q1039 NOSIG RMK BLU BLU
  • 061650Z 23003KT CAVOK 07/M01 Q1039 NOSIG RMK BLU BLU

TAF TAF EGVO
Valido dal 06 a 15 ore il 07 a 03 ore UTC


061307Z 0615/0703 17006KT CAVOK
BECMG 0621/0624 5000 BR
TEMPO 0700/0703 3000 MIFG
PROB30 0701/0703 0500 FZFG VV///



MetMap, La meteo Aeronautica in un colpo d'occhio ! - Copyright ORBIFLY Dicembre 2007 - Disclaimer

ORBIFLY MET'MAP TEAM :

Programmazione e sviluppo : Alexandra Zaïnal
Concezione : Baudouin d'Aumeries
Supporto tecnico e logistico : Manuel Goepfert
Aiuto : Marc-Olivier Méhu
Aiuto per la traduzione : Arnaldo La Scala




FONTI E CREDITI :

   NOAA